East Coast: Past 24 Hour Conditions

 

Blanc-Sablon Airport

08:00 PM AST 18 January 2017
Disclaimer

This table is a summary of hourly weather conditions for the past 24 hours.
Please note that these observations might not always be representative of weather conditions over their associated marine area.

Date / Time
(AST)
Wind(knots) Conditions Visibility(km) Pressure(kPa) Air tempC) Relative humidity(%) Dew pointC) Wind Chill
18 January 2017
20:00 NNE 3 Mainly Clear 24 102.3 -17 78 -20 -21
19:00 NNE 4 Clear 24 102.3 -18 81 -20 -23
18:00 NE 4 Clear 24 102.4 -18 78 -21 -23
17:00 NNW 3 Clear 24 102.4 -16 74 -19 -20
16:00 NNE 3 Mainly Sunny 24 102.3 -15 70 -19 -19
15:00 calm Mainly Sunny 24 102.4 -12 63 -18 *
14:00 NNE 2 Mainly Sunny 24 102.4 -12 64 -18 -14
13:00 N 4 Sunny 24 102.4 -13 65 -18 -17
12:00 NE 6 Sunny 24 102.5 -14 69 -18 -20
11:00 NE 5 Mainly Sunny 24 102.6 -14 68 -19 -20
10:00 NNE 5 Mainly Sunny 24 102.6 -16 69 -20 -21
9:00 NE 8 Mainly Sunny 24 102.6 -18 72 -22 -27
8:00 NNE 6 Mainly Sunny 24 102.6 -18 72 -22 -25
7:00 N 5 Mainly Clear 24 102.6 -18 76 -22 -25
6:00 E 12 Clear 24 102.6 -18 73 -22 -28
5:00 N 2 Clear 24 102.5 -15 70 -19 -18
4:00 N 8 Clear 24 102.5 -16 70 -20 -25
3:00 N 9 Clear 24 102.5 -16 71 -20 -24
2:00 NNW 4 Clear 24 102.5 -18 77 -21 -23
1:00 NNE 4 Clear 24 102.3 -16 73 -20 -22
0:00 NNE 10 gust 17 Clear 24 102.3 -16 72 -20 -26
17 January 2017
23:00 NNW 5 Clear 24 102.4 -16 70 -21 -23
22:00 S 3 Clear 24 102.4 -16 71 -20 -20
21:00 N 23 gust 31 Drifting Snow 24 102.2 -16 74 -19 -29
20:00 NNE 22 gust 33 Blowing Snow 10 102.1 -15 75 -19 -28

Zoom-in to make a selection

Map of Atlantic - Newfoundland marine weather areas Southwestern Grand Banks - 44138 Banquereau - 44139 Tail of the Bank - 44140 Nickerson Bank - 44251 Northeast Burgeo Bank - 44255 Blanc-Sablon Airport Cap Whittle Chevery Natashquan Airport Heath Point Miscou Island Grand Étang Ingonish Beach North Mountain St.Paul Island J.A. Douglas McCurdy Sydney Airport Charlottetown Airport East Point North Cape Argentia Bonavista Burgeo Cape Race Corner Brook Daniel's Harbour Englee Ferolle Point La Scie Port aux Basques Rocky Harbour Sagona Island St. Anthony Airport St. John's Int'l Airport St. Lawrence Stephenville Airport Twillingate Winterland Wreckhouse Cartwright Airport Mary's Harbour Grates Cove Pool's Island Marticot Island Long Pond Eskasoni (First Nations) Îles de la Madeleine Airport
Legend:
buoy Buoy
land station Land Station

Atlantic - Newfoundland Area

Another Region

What we are doing

Date modified: